This is the latest recevied weather packets stored in our database for station/object SP4IM-13. If no packets are shown the sender has not sent any weather packets the latest 10 day(s).
| Time | Temp. | Humidity | Pressure | Rain* | Wind** | Luminosity | Snow |
|---|---|---|---|---|---|---|---|
| 1777526404 | 1.67° C | 47% | 1027 hPa | - | - | - | - |
| 1777525808 | 1.67° C | 51% | 1027 hPa | - | - | - | - |
| 1777525205 | 1.67° C | 54% | 1027 hPa | - | - | - | - |
| 1777524605 | 1.11° C | 58% | 1027 hPa | - | - | - | - |
| 1777524003 | 1.11° C | 63% | 1027 hPa | - | - | - | - |
| 1777523407 | 1.11° C | 68% | 1027 hPa | - | - | - | - |
| 1777522806 | 0.56° C | 72% | 1027 hPa | - | - | - | - |
| 1777522203 | 0.56° C | 76% | 1027 hPa | - | - | - | - |
| 1777521606 | 0.56° C | 77% | 1027 hPa | - | - | - | - |
| 1777521003 | 0.56° C | 76% | 1027 hPa | - | - | - | - |
| 1777520403 | 0.56° C | 75% | 1027 hPa | - | - | - | - |
| 1777519804 | 0.56° C | 75% | 1027 hPa | - | - | - | - |
| 1777519207 | 0.56° C | 74% | 1027 hPa | - | - | - | - |
| 1777518603 | 0.56° C | 73% | 1027 hPa | - | - | - | - |
| 1777518006 | 1.11° C | 73% | 1027 hPa | - | - | - | - |
| 1777517402 | 1.67° C | 72% | 1027 hPa | - | - | - | - |
| 1777516802 | 1.67° C | 71% | 1027 hPa | - | - | - | - |
| 1777516203 | 1.67° C | 70% | 1027 hPa | - | - | - | - |
| 1777515605 | 2.22° C | 70% | 1026 hPa | - | - | - | - |
| 1777515002 | 2.22° C | 69% | 1026 hPa | - | - | - | - |
| 1777514402 | 2.78° C | 68% | 1026 hPa | - | - | - | - |
| 1777513802 | 2.78° C | 68% | 1026 hPa | - | - | - | - |
| 1777512002 | 3.33° C | 65% | 1026 hPa | - | - | - | - |
| 1777511402 | 3.89° C | 65% | 1026 hPa | - | - | - | - |
| 1777506003 | 5° C | 62% | 1026 hPa | - | - | - | - |
* Rain since midnight (hover to see other rain measurements)
** Current wind speed in m/s (hover to see current wind gust speed)